Time;durP1;ratioP1;P1;durP2;ratioP2;P2;SDS_P1;SDS_P2;PMS_P1;PMS_P2;Temp;Humidity;BMP_temperature;BMP_pressure;BME280_temperature;BME280_humidity;BME280_pressure;Samples;Min_cycle;Max_cycle;Signal;HPM_P1;HPM_P2
2022/08/03 00:00:51;;;;;;;;;;;;;;;21.30;71.42;101517.81;5075675;28;20260;-36
2022/08/03 00:03:16;;;;;;;;;;;;;;;21.30;70.85;101514.22;5075363;28;19913;-36
2022/08/03 00:05:41;;;;;;;;;;;;;;;21.30;71.13;101517.81;5075938;28;19973;-37
2022/08/03 00:08:06;;;;;;;;;;;;;;;21.28;71.08;101519.22;5075683;28;19912;-37
2022/08/03 00:10:31;;;;;;;;;;;;;;;21.27;71.24;101515.59;5075108;28;20475;-37
2022/08/03 00:12:57;;;;;;;;;;;;;;;21.26;71.17;101518.66;5075314;28;20383;-37
2022/08/03 00:15:22;;;;;;;;;;;;;;;21.24;71.69;101520.88;5075928;28;20030;-36
2022/08/03 00:17:47;;;;;;;;;;;;;;;21.19;72.09;101508.00;5075415;28;19913;-36
2022/08/03 00:20:12;;;;;;;;;;;;;;;21.15;71.86;101520.66;5075889;28;20241;-37
2022/08/03 00:22:37;;;;;;;;;;;;;;;21.11;71.83;101519.59;5075288;28;19912;-45
2022/08/03 00:25:03;;;;;;;;;;;;;;;21.08;72.45;101511.91;5075299;28;19912;-46
2022/08/03 00:27:28;;;;;;;;;;;;;;;21.03;72.63;101504.53;5075270;28;19920;-37
2022/08/03 00:29:53;;;;;;;;;;;;;;;21.03;72.51;101509.19;5075794;28;19912;-36
2022/08/03 00:32:18;;;;;;;;;;;;;;;21.01;72.69;101509.47;5074886;28;20387;-37
2022/08/03 00:34:44;;;;;;;;;;;;;;;21.00;72.80;101501.53;5075391;28;19974;-37
2022/08/03 00:37:09;;;;;;;;;;;;;;;20.99;72.34;101500.69;5075314;28;20359;-37
2022/08/03 00:39:34;;;;;;;;;;;;;;;20.99;72.65;101505.38;5074788;28;19912;-37
2022/08/03 00:42:03;;;;;;;;;;;;;;;20.96;72.66;101503.19;5074565;28;20045;-37
2022/08/03 00:44:28;;;;;;;;;;;;;;;20.93;72.74;101506.50;5074968;28;19944;-37
2022/08/03 00:46:53;;;;;;;;;;;;;;;20.93;72.91;101503.75;5075756;28;19913;-36
2022/08/03 00:49:18;;;;;;;;;;;;;;;20.91;72.69;101497.72;5074825;28;19920;-37
2022/08/03 00:51:44;;;;;;;;;;;;;;;20.89;72.67;101499.94;5075038;28;19999;-37
2022/08/03 00:54:09;;;;;;;;;;;;;;;20.88;72.90;101501.03;5074649;28;19912;-37
2022/08/03 00:56:35;;;;;;;;;;;;;;;20.83;73.18;101502.69;5074934;28;20001;-38
2022/08/03 00:59:00;;;;;;;;;;;;;;;20.79;73.32;101493.41;5073022;28;19920;-36
2022/08/03 01:01:25;;;;;;;;;;;;;;;20.76;73.74;101488.47;5075092;28;19913;-36
2022/08/03 01:03:51;;;;;;;;;;;;;;;20.74;73.49;101490.69;5074152;28;20523;-36
2022/08/03 01:06:17;;;;;;;;;;;;;;;20.71;73.99;101499.50;5075006;28;19913;-36
2022/08/03 01:08:46;;;;;;;;;;;;;;;20.71;75.52;101485.75;5074603;28;20003;-36
2022/08/03 01:11:17;;;;;;;;;;;;;;;20.70;74.95;101491.53;5075131;28;19999;-36
2022/08/03 01:13:47;;;;;;;;;;;;;;;20.64;74.35;101485.22;5074206;28;19995;-37
2022/08/03 01:16:32;;;;;;;;;;;;;;;20.66;74.43;101491.28;5074325;28;19912;-36
2022/08/03 01:19:01;;;;;;;;;;;;;;;20.61;75.97;101485.81;5074219;28;19948;-36
2022/08/03 01:21:30;;;;;;;;;;;;;;;20.55;76.04;101478.69;5074136;28;19917;-36
2022/08/03 01:23:55;;;;;;;;;;;;;;;20.49;75.29;101480.63;5074061;28;19935;-36
2022/08/03 01:26:23;;;;;;;;;;;;;;;20.48;76.47;101484.47;5074151;28;19999;-36
2022/08/03 01:29:01;;;;;;;;;;;;;;;20.45;76.77;101486.97;5074036;28;19965;-36
2022/08/03 01:31:28;;;;;;;;;;;;;;;20.45;75.47;101489.72;5074018;28;19912;-36
2022/08/03 01:33:59;;;;;;;;;;;;;;;20.44;76.01;101488.03;5073630;28;19962;-36
2022/08/03 01:36:28;;;;;;;;;;;;;;;20.43;75.83;101483.66;5073989;28;19912;-36
2022/08/03 01:38:56;;;;;;;;;;;;;;;20.40;75.91;101487.81;5073754;28;20007;-36
2022/08/03 01:41:28;;;;;;;;;;;;;;;20.37;75.99;101474.63;5074144;28;19912;-36
2022/08/03 01:43:56;;;;;;;;;;;;;;;20.38;75.79;101472.69;5072710;28;19916;-36
2022/08/03 01:46:22;;;;;;;;;;;;;;;20.39;75.77;101475.16;5073563;28;19919;-36
2022/08/03 01:48:48;;;;;;;;;;;;;;;20.37;75.51;101476.56;5073672;28;20011;-36
2022/08/03 01:51:15;;;;;;;;;;;;;;;20.37;76.29;101482.03;5074011;28;19947;-36
2022/08/03 01:53:43;;;;;;;;;;;;;;;20.35;76.03;101478.72;5073865;28;19916;-36
2022/08/03 01:56:09;;;;;;;;;;;;;;;20.33;76.68;101479.03;5073855;28;19918;-36
2022/08/03 01:58:35;;;;;;;;;;;;;;;20.29;76.57;101473.25;5073522;28;19916;-36
2022/08/03 02:01:01;;;;;;;;;;;;;;;20.27;77.67;101482.91;5073595;28;20080;-36
2022/08/03 02:03:28;;;;;;;;;;;;;;;20.21;76.77;101484.84;5073135;28;19920;-36
2022/08/03 02:05:54;;;;;;;;;;;;;;;20.19;76.93;101469.75;5073589;28;19935;-36
2022/08/03 02:08:21;;;;;;;;;;;;;;;20.16;77.26;101470.31;5073402;28;19913;-36
2022/08/03 02:10:47;;;;;;;;;;;;;;;20.15;76.66;101474.97;5073412;28;19924;-36
2022/08/03 02:13:13;;;;;;;;;;;;;;;20.14;77.44;101478.81;5073444;28;20299;-36
2022/08/03 02:15:40;;;;;;;;;;;;;;;20.10;77.49;101474.97;5073892;28;19985;-36
2022/08/03 02:18:06;;;;;;;;;;;;;;;20.07;77.59;101472.81;5073314;28;19912;-36
2022/08/03 02:20:35;;;;;;;;;;;;;;;20.06;77.63;101472.00;5074359;28;20267;-36
2022/08/03 02:23:00;;;;;;;;;;;;;;;20.05;78.49;101472.25;5073259;28;19923;-36
2022/08/03 02:25:25;;;;;;;;;;;;;;;20.02;79.15;101475.56;5073333;28;20256;-36
2022/08/03 02:27:53;;;;;;;;;;;;;;;19.98;77.94;101471.75;5073618;28;19913;-36
2022/08/03 02:30:19;;;;;;;;;;;;;;;19.98;78.63;101463.50;5073308;28;19994;-36
2022/08/03 02:32:50;;;;;;;;;;;;;;;19.96;79.33;101465.69;5075060;28;19916;-36
2022/08/03 02:35:17;;;;;;;;;;;;;;;19.92;78.61;101453.66;5077654;28;19958;-36
2022/08/03 02:37:45;;;;;;;;;;;;;;;19.91;78.98;101451.97;5076986;28;19935;-36
2022/08/03 02:40:12;;;;;;;;;;;;;;;19.90;78.53;101458.56;5077010;28;19960;-35
2022/08/03 02:42:38;;;;;;;;;;;;;;;19.89;79.28;101454.19;5077090;28;19912;-35
2022/08/03 02:45:05;;;;;;;;;;;;;;;19.86;79.14;101454.75;5077924;28;19920;-35
2022/08/03 02:47:31;;;;;;;;;;;;;;;19.84;78.47;101451.47;5076816;28;19954;-36
2022/08/03 02:49:59;;;;;;;;;;;;;;;19.83;78.43;101461.63;5077840;28;20344;-36
2022/08/03 02:52:26;;;;;;;;;;;;;;;19.82;79.02;101460.00;5076960;28;19912;-36
2022/08/03 02:54:54;;;;;;;;;;;;;;;19.80;79.00;101452.00;5077527;28;19912;-36
2022/08/03 02:57:21;;;;;;;;;;;;;;;19.80;79.19;101456.69;5076937;28;19913;-36
2022/08/03 02:59:46;;;;;;;;;;;;;;;19.78;78.88;101459.72;5076725;28;20061;-36
2022/08/03 03:02:13;;;;;;;;;;;;;;;19.78;78.52;101459.72;5076509;28;20407;-36
2022/08/03 03:04:39;;;;;;;;;;;;;;;19.77;78.95;101452.59;5077078;28;19948;-36
2022/08/03 03:07:04;;;;;;;;;;;;;;;19.74;79.25;101458.63;5076719;28;19967;-36
2022/08/03 03:09:31;;;;;;;;;;;;;;;19.72;78.62;101460.84;5076503;28;19923;-36
2022/08/03 03:11:56;;;;;;;;;;;;;;;19.70;79.13;101463.00;5076574;28;19955;-36
2022/08/03 03:14:21;;;;;;;;;;;;;;;19.68;79.79;101458.91;5077254;28;19913;-36
2022/08/03 03:16:47;;;;;;;;;;;;;;;19.64;79.54;101453.16;5077065;28;19919;-36
2022/08/03 03:19:14;;;;;;;;;;;;;;;19.63;79.80;101459.75;5077148;28;19912;-36
2022/08/03 03:21:40;;;;;;;;;;;;;;;19.62;79.36;101460.00;5076993;28;20328;-36
2022/08/03 03:24:06;;;;;;;;;;;;;;;19.60;78.98;101463.03;5076647;28;19920;-36
2022/08/03 03:26:33;;;;;;;;;;;;;;;19.59;79.23;101461.34;5076795;28;19913;-36
2022/08/03 03:28:58;;;;;;;;;;;;;;;19.56;80.64;101457.22;5076199;28;19958;-36
2022/08/03 03:31:23;;;;;;;;;;;;;;;19.56;80.16;101459.16;5076777;28;19913;-35
2022/08/03 03:33:48;;;;;;;;;;;;;;;19.54;80.24;101453.13;5076163;28;20305;-36
2022/08/03 03:36:14;;;;;;;;;;;;;;;19.52;80.35;101447.94;5076181;28;19913;-36
2022/08/03 03:38:39;;;;;;;;;;;;;;;19.50;80.20;101449.28;5074965;28;19912;-36
2022/08/03 03:41:04;;;;;;;;;;;;;;;19.48;80.30;101448.75;5076064;28;20356;-36
2022/08/03 03:43:30;;;;;;;;;;;;;;;19.47;80.22;101447.09;5075350;28;20010;-36
2022/08/03 03:45:55;;;;;;;;;;;;;;;19.44;80.31;101459.47;5076046;28;19912;-35
2022/08/03 03:48:23;;;;;;;;;;;;;;;19.44;80.38;101455.91;5075905;28;19970;-36
2022/08/03 03:50:48;;;;;;;;;;;;;;;19.44;80.40;101453.16;5076154;28;19916;-36
2022/08/03 03:53:14;;;;;;;;;;;;;;;19.41;81.55;101443.53;5076523;28;20046;-36
2022/08/03 03:55:39;;;;;;;;;;;;;;;19.39;80.53;101451.22;5076625;28;19912;-36
2022/08/03 03:58:05;;;;;;;;;;;;;;;19.39;81.20;101447.66;5075748;28;19951;-36
2022/08/03 04:00:31;;;;;;;;;;;;;;;19.38;81.03;101446.03;5076314;28;20280;-36
2022/08/03 04:02:56;;;;;;;;;;;;;;;19.37;81.49;101444.38;5075748;28;20085;-35
2022/08/03 04:10:59;;;;;;;;;;;;;;;19.35;80.36;101449.31;5075620;28;19997;-35
2022/08/03 04:13:28;;;;;;;;;;;;;;;19.32;80.80;101438.88;5075453;28;19923;-35
2022/08/03 04:15:54;;;;;;;;;;;;;;;19.29;80.78;101449.31;5075950;28;20257;-35
2022/08/03 04:18:20;;;;;;;;;;;;;;;19.28;81.00;101455.91;5075329;28;19919;-35
2022/08/03 04:20:47;;;;;;;;;;;;;;;19.26;80.84;101449.84;5075806;28;19912;-35
2022/08/03 04:23:12;;;;;;;;;;;;;;;19.26;81.03;101457.25;5075442;28;19912;-35
2022/08/03 04:25:38;;;;;;;;;;;;;;;19.22;81.26;101448.75;5076535;28;19919;-35
2022/08/03 04:28:04;;;;;;;;;;;;;;;19.21;80.95;101449.03;5075521;28;20363;-36
2022/08/03 04:30:31;;;;;;;;;;;;;;;19.19;80.92;101456.72;5075202;28;19912;-36
2022/08/03 04:32:57;;;;;;;;;;;;;;;19.17;82.11;101454.25;5075514;28;19952;-36
2022/08/03 04:35:28;;;;;;;;;;;;;;;19.14;83.91;101457.53;5075375;28;19935;-36
2022/08/03 04:37:53;;;;;;;;;;;;;;;19.12;85.00;101462.47;5075456;28;19916;-36
2022/08/03 04:40:27;;;;;;;;;;;;;;;19.09;85.59;101460.28;5075185;28;19973;-36
2022/08/03 04:42:53;;;;;;;;;;;;;;;19.09;86.10;101456.72;5074497;28;19974;-36
2022/08/03 04:45:20;;;;;;;;;;;;;;;19.11;86.31;101460.81;5074819;28;19965;-37
2022/08/03 04:47:45;;;;;;;;;;;;;;;19.11;86.47;101460.81;5074427;28;20398;-36
2022/08/03 04:50:11;;;;;;;;;;;;;;;19.14;85.66;101460.28;5074608;28;19913;-36
2022/08/03 04:52:36;;;;;;;;;;;;;;;19.20;86.90;101467.41;5074452;28;19920;-36
2022/08/03 04:55:01;;;;;;;;;;;;;;;19.23;85.64;101469.63;5074617;28;20025;-36
2022/08/03 04:57:27;;;;;;;;;;;;;;;19.27;84.90;101469.88;5074662;28;19967;-36
2022/08/03 04:59:55;;;;;;;;;;;;;;;19.37;83.88;101475.34;5075083;28;20264;-36
2022/08/03 05:02:21;;;;;;;;;;;;;;;19.44;85.09;101470.44;5074416;28;20014;-36
2022/08/03 05:04:46;;;;;;;;;;;;;;;19.50;83.19;101476.72;5074805;28;19948;-36
2022/08/03 05:07:12;;;;;;;;;;;;;;;19.58;83.37;101481.66;5074406;28;19935;-36
2022/08/03 05:09:37;;;;;;;;;;;;;;;19.61;83.31;101481.13;5074638;28;19912;-36
2022/08/03 05:12:03;;;;;;;;;;;;;;;19.66;82.76;101480.31;5074569;28;20288;-36
2022/08/03 05:14:28;;;;;;;;;;;;;;;19.72;83.57;101479.22;5074827;28;20026;-36
2022/08/03 05:16:53;;;;;;;;;;;;;;;19.78;82.77;101478.91;5074767;28;19974;-36
2022/08/03 05:19:19;;;;;;;;;;;;;;;19.86;83.79;101488.50;5074166;28;20353;-36
2022/08/03 05:21:44;;;;;;;;;;;;;;;19.92;83.36;101492.06;5073925;28;20016;-36
2022/08/03 05:24:09;;;;;;;;;;;;;;;19.96;82.70;101484.91;5074014;28;20013;-36
2022/08/03 05:26:34;;;;;;;;;;;;;;;20.01;83.50;101485.75;5074621;28;19919;-36
2022/08/03 05:29:00;;;;;;;;;;;;;;;20.08;82.83;101495.59;5073757;28;19938;-36
2022/08/03 05:31:25;;;;;;;;;;;;;;;20.12;82.99;101493.94;5074178;28;20328;-36
2022/08/03 05:33:50;;;;;;;;;;;;;;;20.19;82.46;101486.22;5073877;28;19948;-36
2022/08/03 05:36:15;;;;;;;;;;;;;;;20.26;82.72;101495.00;5074622;28;20384;-36
2022/08/03 05:38:40;;;;;;;;;;;;;;;20.27;83.04;101494.72;5074249;28;19912;-36
2022/08/03 05:41:06;;;;;;;;;;;;;;;20.33;82.85;101495.50;5073804;28;20322;-37
2022/08/03 05:43:31;;;;;;;;;;;;;;;20.40;82.13;101500.69;5073596;28;19913;-36
2022/08/03 05:45:58;;;;;;;;;;;;;;;20.45;82.51;101497.94;5074128;28;19912;-36
2022/08/03 05:48:23;;;;;;;;;;;;;;;20.50;82.18;101496.03;5073278;28;19965;-36
2022/08/03 05:50:49;;;;;;;;;;;;;;;20.56;82.37;101496.81;5073387;28;19916;-36
2022/08/03 05:53:14;;;;;;;;;;;;;;;20.62;82.33;101503.94;5073617;28;20271;-36
2022/08/03 05:55:39;;;;;;;;;;;;;;;20.67;81.73;101498.41;5074313;28;19982;-36
2022/08/03 05:58:04;;;;;;;;;;;;;;;20.69;80.68;101503.59;5073531;28;19913;-36
2022/08/03 06:00:29;;;;;;;;;;;;;;;20.71;81.55;101502.22;5074328;28;19921;-36
2022/08/03 06:02:56;;;;;;;;;;;;;;;20.73;81.10;101502.75;5073373;28;20413;-36
2022/08/03 06:05:21;;;;;;;;;;;;;;;20.77;81.39;101492.03;5074289;28;19912;-36
2022/08/03 06:07:46;;;;;;;;;;;;;;;20.86;81.19;101498.56;5072948;28;19923;-36
2022/08/03 06:10:11;;;;;;;;;;;;;;;20.97;80.75;101496.59;5073447;28;19912;-36
2022/08/03 06:12:39;;;;;;;;;;;;;;;21.03;80.27;101495.44;5073131;28;19919;-36
2022/08/03 06:15:05;;;;;;;;;;;;;;;21.09;80.33;101495.13;5072307;28;19912;-36
2022/08/03 06:17:30;;;;;;;;;;;;;;;21.14;80.03;101488.78;5073235;28;19923;-36
2022/08/03 06:19:55;;;;;;;;;;;;;;;21.18;80.13;101495.34;5073349;28;19912;-36
2022/08/03 06:22:21;;;;;;;;;;;;;;;21.21;80.39;101496.69;5072968;28;19952;-36
2022/08/03 06:24:46;;;;;;;;;;;;;;;21.26;79.76;101493.91;5072973;28;19912;-36
2022/08/03 06:27:11;;;;;;;;;;;;;;;21.30;79.60;101498.56;5073257;28;19924;-36
2022/08/03 06:29:36;;;;;;;;;;;;;;;21.38;79.28;101501.84;5073187;28;19912;-37
2022/08/03 06:32:02;;;;;;;;;;;;;;;21.43;79.15;101496.28;5073927;28;19916;-37
2022/08/03 06:34:27;;;;;;;;;;;;;;;21.49;78.82;101504.19;5072998;28;19923;-36
2022/08/03 06:36:53;;;;;;;;;;;;;;;21.55;79.08;101502.22;5073487;28;20014;-36
2022/08/03 06:39:18;;;;;;;;;;;;;;;21.60;78.58;101504.94;5072780;28;19965;-36
2022/08/03 06:41:44;;;;;;;;;;;;;;;21.67;78.04;101505.44;5073057;28;19916;-36
2022/08/03 06:44:09;;;;;;;;;;;;;;;21.72;77.63;101508.13;5073019;28;19928;-37
2022/08/03 06:46:34;;;;;;;;;;;;;;;21.74;77.75;101510.59;5073073;28;20441;-36
2022/08/03 06:48:59;;;;;;;;;;;;;;;21.77;77.44;101513.59;5072982;28;20346;-36
2022/08/03 06:51:25;;;;;;;;;;;;;;;21.79;77.57;101510.53;5072931;28;19913;-37
2022/08/03 06:53:50;;;;;;;;;;;;;;;21.86;77.42;101508.25;5072469;28;19923;-36
2022/08/03 06:56:15;;;;;;;;;;;;;;;21.93;77.13;101518.94;5073534;28;19919;-36
2022/08/03 06:58:40;;;;;;;;;;;;;;;21.95;76.62;101512.00;5072919;28;19916;-36
2022/08/03 07:01:05;;;;;;;;;;;;;;;21.96;76.48;101512.81;5072988;28;19919;-36
2022/08/03 07:03:31;;;;;;;;;;;;;;;21.96;76.50;101515.59;5072485;28;20007;-36
2022/08/03 07:05:56;;;;;;;;;;;;;;;21.98;76.74;101516.94;5072773;28;19940;-36
2022/08/03 07:08:23;;;;;;;;;;;;;;;22.03;76.34;101513.31;5071437;28;19923;-36
2022/08/03 07:10:48;;;;;;;;;;;;;;;22.07;76.29;101512.44;5073069;28;19920;-36
2022/08/03 07:13:13;;;;;;;;;;;;;;;22.15;76.60;101515.69;5073135;28;19916;-36
2022/08/03 07:15:39;;;;;;;;;;;;;;;22.18;75.84;101517.88;5073262;28;19996;-36
2022/08/03 07:18:05;;;;;;;;;;;;;;;22.21;75.82;101520.88;5073327;28;19927;-36
2022/08/03 07:20:31;;;;;;;;;;;;;;;22.27;75.75;101530.72;5075630;28;19916;-36
2022/08/03 07:22:56;;;;;;;;;;;;;;;22.32;75.27;101522.38;5077022;28;20428;-36
2022/08/03 07:25:21;;;;;;;;;;;;;;;22.34;75.14;101535.84;5076553;28;19955;-36
2022/08/03 07:27:47;;;;;;;;;;;;;;;22.39;75.21;101530.28;5076179;28;19959;-37
2022/08/03 07:30:12;;;;;;;;;;;;;;;22.47;74.95;101534.34;5076298;28;19973;-36
2022/08/03 07:32:38;;;;;;;;;;;;;;;22.53;74.60;101527.63;5076171;28;19978;-36
2022/08/03 07:35:03;;;;;;;;;;;;;;;22.54;74.57;101530.09;5076132;28;19919;-36
2022/08/03 07:37:29;;;;;;;;;;;;;;;22.59;74.34;101526.44;5076069;28;19918;-36
2022/08/03 07:39:54;;;;;;;;;;;;;;;22.68;74.06;101538.47;5076046;28;19912;-36
2022/08/03 07:42:20;;;;;;;;;;;;;;;22.74;73.92;101528.19;5076024;28;19936;-36
2022/08/03 07:44:45;;;;;;;;;;;;;;;22.80;73.36;101527.84;5076244;28;19947;-36
2022/08/03 07:47:10;;;;;;;;;;;;;;;22.85;72.70;101536.03;5075663;28;19935;-36
2022/08/03 07:49:39;;;;;;;;;;;;;;;22.88;72.68;101527.19;5076002;28;19912;-36
2022/08/03 07:54:48;;;;;;;;;;;;;;;22.97;72.74;101532.03;5075953;28;19931;-36
2022/08/03 07:57:14;;;;;;;;;;;;;;;23.01;72.35;101525.63;5076563;28;20340;-36
2022/08/03 07:59:39;;;;;;;;;;;;;;;23.07;72.20;101524.44;5075825;28;19917;-36
2022/08/03 08:02:05;;;;;;;;;;;;;;;23.09;72.21;101524.16;5075678;28;19913;-36
2022/08/03 08:04:30;;;;;;;;;;;;;;;23.11;72.16;101519.97;5076243;28;19916;-36
2022/08/03 08:06:55;;;;;;;;;;;;;;;23.17;72.50;101512.44;5076169;28;19919;-36
2022/08/03 08:09:22;;;;;;;;;;;;;;;23.27;72.22;101508.69;5075494;28;19912;-36
2022/08/03 08:11:48;;;;;;;;;;;;;;;23.32;71.81;101516.88;5075989;28;19912;-36
2022/08/03 08:14:13;;;;;;;;;;;;;;;23.38;71.33;101522.03;5075411;28;19913;-36
2022/08/03 08:16:38;;;;;;;;;;;;;;;23.47;71.70;101519.38;5075700;28;20374;-39
2022/08/03 08:19:03;;;;;;;;;;;;;;;23.55;70.71;101517.91;5075044;28;19912;-36
2022/08/03 08:21:28;;;;;;;;;;;;;;;23.62;69.95;101519.16;5075478;28;19938;-36
2022/08/03 08:23:54;;;;;;;;;;;;;;;23.70;69.83;101525.94;5074936;28;20365;-36
2022/08/03 08:26:19;;;;;;;;;;;;;;;23.80;69.49;101525.75;5075585;28;20007;-36
2022/08/03 08:28:44;;;;;;;;;;;;;;;23.84;69.57;101520.44;5074819;28;19912;-36
2022/08/03 08:31:10;;;;;;;;;;;;;;;23.93;69.35;101526.91;5075051;28;20112;-36
2022/08/03 08:33:35;;;;;;;;;;;;;;;24.05;69.22;101523.66;5075083;28;19912;-36
2022/08/03 08:36:00;;;;;;;;;;;;;;;24.15;68.27;101517.91;5074912;28;20469;-37
2022/08/03 08:38:25;;;;;;;;;;;;;;;24.26;68.74;101513.84;5075355;28;19916;-36
2022/08/03 08:40:53;;;;;;;;;;;;;;;24.34;68.03;101518.63;5075302;28;19955;-36
2022/08/03 08:43:19;;;;;;;;;;;;;;;24.46;67.27;101506.31;5074474;28;19913;-36
2022/08/03 08:45:45;;;;;;;;;;;;;;;24.57;67.46;101510.47;5075385;28;19920;-36
2022/08/03 08:48:12;;;;;;;;;;;;;;;24.63;66.49;101514.75;5074832;28;19916;-36
2022/08/03 08:50:37;;;;;;;;;;;;;;;24.73;65.79;101510.97;5075165;28;19912;-36
2022/08/03 08:53:05;;;;;;;;;;;;;;;24.84;66.46;101509.59;5074675;28;19983;-36
2022/08/03 08:55:33;;;;;;;;;;;;;;;25.01;65.45;101503.41;5074326;28;19916;-36
2022/08/03 08:58:01;;;;;;;;;;;;;;;25.15;64.61;101513.31;5074304;28;20463;-36
2022/08/03 09:00:26;;;;;;;;;;;;;;;25.27;63.79;101510.00;5075622;28;19966;-37
2022/08/03 09:02:51;;;;;;;;;;;;;;;25.36;63.05;101512.81;5074121;28;19959;-36
2022/08/03 09:05:17;;;;;;;;;;;;;;;25.42;62.88;101509.59;5074910;28;19919;-36
2022/08/03 09:07:44;;;;;;;;;;;;;;;25.48;62.76;101502.00;5074343;28;19966;-37
2022/08/03 09:10:10;;;;;;;;;;;;;;;25.61;63.06;101512.19;5075154;28;20311;-37
2022/08/03 09:12:36;;;;;;;;;;;;;;;25.74;63.12;101504.94;5074353;28;20007;-37
2022/08/03 09:15:18;;;;;;;;;;;;;;;25.87;62.21;101515.16;5075059;28;19916;-37
2022/08/03 09:17:44;;;;;;;;;;;;;;;26.02;61.47;101507.56;5073861;28;20334;-36
2022/08/03 09:20:09;;;;;;;;;;;;;;;26.12;61.27;101512.81;5074220;28;19996;-37
2022/08/03 09:22:35;;;;;;;;;;;;;;;26.24;61.08;101504.69;5074248;28;19912;-37
2022/08/03 09:25:06;;;;;;;;;;;;;;;26.39;60.20;101508.97;5074651;28;19916;-37
2022/08/03 09:27:43;;;;;;;;;;;;;;;26.45;58.54;101504.97;5073924;28;20380;-37
2022/08/03 09:30:13;;;;;;;;;;;;;;;26.54;59.42;101507.72;5074537;28;19974;-37
2022/08/03 09:32:38;;;;;;;;;;;;;;;26.62;58.65;101515.25;5073869;28;19948;-37
2022/08/03 09:35:04;;;;;;;;;;;;;;;26.73;58.58;101515.75;5073884;28;19913;-37
2022/08/03 09:37:29;;;;;;;;;;;;;;;26.79;58.14;101504.22;5073467;28;19912;-37
2022/08/03 09:39:54;;;;;;;;;;;;;;;26.90;58.64;101508.28;5073887;28;19912;-37
2022/08/03 09:42:22;;;;;;;;;;;;;;;27.06;57.57;101510.56;5073747;28;19932;-36
2022/08/03 09:44:48;;;;;;;;;;;;;;;27.14;57.00;101505.06;5074140;28;19919;-37
2022/08/03 09:47:15;;;;;;;;;;;;;;;27.23;56.97;101512.53;5073164;28;19912;-37
2022/08/03 09:49:41;;;;;;;;;;;;;;;27.32;56.72;101505.84;5073735;28;19916;-36
2022/08/03 09:52:21;;;;;;;;;;;;;;;27.43;56.87;101509.94;5073559;28;19912;-37
2022/08/03 09:54:50;;;;;;;;;;;;;;;27.51;54.00;101505.50;5073610;28;19919;-37
2022/08/03 09:57:19;;;;;;;;;;;;;;;27.58;54.33;101507.78;5073499;28;20387;-37
2022/08/03 09:59:45;;;;;;;;;;;;;;;27.68;53.54;101504.66;5074518;28;20014;-37
2022/08/03 10:02:19;;;;;;;;;;;;;;;27.76;54.79;101503.81;5073515;28;20078;-37
2022/08/03 10:04:49;;;;;;;;;;;;;;;27.85;53.94;101507.38;5073480;28;19912;-37
2022/08/03 10:07:14;;;;;;;;;;;;;;;27.96;54.50;101510.63;5074183;28;19912;-37
2022/08/03 10:09:51;;;;;;;;;;;;;;;28.10;53.72;101502.06;5073660;28;19923;-37
2022/08/03 10:12:17;;;;;;;;;;;;;;;28.24;53.31;101497.91;5073675;28;19912;-37
2022/08/03 10:14:44;;;;;;;;;;;;;;;28.30;52.46;101498.53;5073876;28;20050;-37
2022/08/03 10:17:09;;;;;;;;;;;;;;;28.40;52.24;101505.69;5073343;28;19916;-36
2022/08/03 10:19:35;;;;;;;;;;;;;;;28.54;51.84;101494.31;5073661;28;20273;-37
2022/08/03 10:22:02;;;;;;;;;;;;;;;28.71;52.72;101495.03;5073372;28;19938;-37
2022/08/03 10:24:29;;;;;;;;;;;;;;;28.78;51.42;101494.47;5073648;28;19913;-37
2022/08/03 10:27:02;;;;;;;;;;;;;;;28.78;50.58;101491.69;5073429;28;19913;-37
2022/08/03 10:29:29;;;;;;;;;;;;;;;28.87;50.51;101491.63;5073223;28;20307;-37
2022/08/03 10:31:56;;;;;;;;;;;;;;;28.96;49.89;101484.06;5073296;28;19912;-37
2022/08/03 10:34:22;;;;;;;;;;;;;;;29.04;49.15;101479.56;5072954;28;19947;-37
2022/08/03 10:36:48;;;;;;;;;;;;;;;29.14;49.59;101491.13;5073463;28;19912;-37
2022/08/03 10:39:17;;;;;;;;;;;;;;;29.24;49.23;101482.34;5073387;28;20355;-37
2022/08/03 10:41:45;;;;;;;;;;;;;;;29.36;49.59;101478.78;5073093;28;20110;-35
2022/08/03 10:44:14;;;;;;;;;;;;;;;29.49;47.14;101480.44;5072890;28;19923;-35
2022/08/03 10:46:40;;;;;;;;;;;;;;;29.58;48.71;101474.00;5073347;28;19919;-35
2022/08/03 10:49:06;;;;;;;;;;;;;;;29.75;48.77;101476.56;5072927;28;20003;-35
2022/08/03 10:51:31;;;;;;;;;;;;;;;29.85;47.31;101473.31;5073535;28;20015;-35
2022/08/03 10:53:57;;;;;;;;;;;;;;;29.88;46.56;101467.06;5075057;28;19963;-36
2022/08/03 10:59:39;;;;;;;;;;;;;;;29.94;45.45;101451.72;5077230;28;19967;-36
2022/08/03 11:02:07;;;;;;;;;;;;;;;30.05;46.75;101454.88;5076840;28;19919;-36
2022/08/03 11:04:32;;;;;;;;;;;;;;;30.16;47.59;101452.44;5077053;28;20010;-36
2022/08/03 11:07:26;;;;;;;;;;;;;;;30.29;45.34;101451.28;5076586;28;20345;-36
2022/08/03 11:09:52;;;;;;;;;;;;;;;30.42;46.70;101455.69;5054999;28;19920;-36
2022/08/03 11:12:22;;;;;;;;;;;;;;;30.46;42.94;101447.44;5054866;28;19959;-36
2022/08/03 11:14:48;;;;;;;;;;;;;;;30.50;45.46;101448.34;5054492;28;19920;-36
2022/08/03 11:17:13;;;;;;;;;;;;;;;30.63;44.28;101454.72;5054092;28;20369;-37
2022/08/03 11:19:42;;;;;;;;;;;;;;;30.71;43.29;101446.22;5054146;28;20289;-36
2022/08/03 11:22:07;;;;;;;;;;;;;;;30.75;42.57;101447.16;5037699;28;19920;-36
2022/08/03 11:24:36;;;;;;;;;;;;;;;30.81;42.76;101442.13;5054192;28;20372;-36
2022/08/03 11:27:21;;;;;;;;;;;;;;;30.90;42.08;101453.97;5054514;28;19971;-36
2022/08/03 11:30:01;;;;;;;;;;;;;;;31.00;44.82;101450.66;5053246;28;19913;-37
2022/08/03 11:32:47;;;;;;;;;;;;;;;31.12;42.11;101440.59;5054583;28;19913;-37
2022/08/03 11:35:21;;;;;;;;;;;;;;;31.15;42.00;101442.69;5054110;28;19975;-36
2022/08/03 11:37:52;;;;;;;;;;;;;;;31.18;42.71;101451.16;5053752;28;19913;-36
2022/08/03 11:40:33;;;;;;;;;;;;;;;31.30;43.06;101441.94;5053727;28;19963;-36
2022/08/03 11:42:58;;;;;;;;;;;;;;;31.50;43.65;101454.84;5054324;28;19920;-36
2022/08/03 11:45:23;;;;;;;;;;;;;;;31.59;40.43;101442.69;5057195;28;19912;-36
2022/08/03 11:47:51;;;;;;;;;;;;;;;31.67;41.62;101441.69;5075931;28;19919;-36
2022/08/03 11:50:18;;;;;;;;;;;;;;;31.79;42.83;101444.41;5076665;28;19912;-36
2022/08/03 11:52:43;;;;;;;;;;;;;;;31.93;42.00;101452.38;5075600;28;20291;-36
2022/08/03 11:55:09;;;;;;;;;;;;;;;32.02;41.65;101439.03;5076078;28;19991;-36
2022/08/03 11:57:34;;;;;;;;;;;;;;;32.13;39.49;101442.88;5075768;28;19920;-36
2022/08/03 12:00:00;;;;;;;;;;;;;;;32.14;39.08;101440.88;5076426;28;19920;-36
2022/08/03 12:02:25;;;;;;;;;;;;;;;32.18;41.46;101450.97;5076127;28;19916;-36
2022/08/03 12:04:57;;;;;;;;;;;;;;;32.24;39.86;101445.91;5075260;28;19912;-36
2022/08/03 12:07:22;;;;;;;;;;;;;;;32.20;40.26;101442.22;5076101;28;19966;-36
2022/08/03 12:10:06;;;;;;;;;;;;;;;32.26;38.30;101440.78;5075977;28;19916;-36
2022/08/03 12:12:31;;;;;;;;;;;;;;;32.28;39.94;101444.81;5075891;28;19923;-36
2022/08/03 12:14:57;;;;;;;;;;;;;;;32.36;39.52;101448.63;5076023;28;19913;-36
2022/08/03 12:17:22;;;;;;;;;;;;;;;32.45;39.68;101434.41;5075134;28;19917;-36
2022/08/03 12:19:47;;;;;;;;;;;;;;;32.48;38.00;101437.31;5075742;28;19974;-36
2022/08/03 12:22:14;;;;;;;;;;;;;;;32.45;39.32;101446.41;5074917;28;19919;-36
2022/08/03 12:24:41;;;;;;;;;;;;;;;32.52;40.23;101438.19;5076088;28;19966;-36
2022/08/03 12:27:06;;;;;;;;;;;;;;;32.57;38.94;101434.28;5075203;28;19912;-36
2022/08/03 12:29:31;;;;;;;;;;;;;;;32.63;38.82;101434.81;5075442;28;20387;-36
2022/08/03 12:31:56;;;;;;;;;;;;;;;32.75;39.30;101440.28;5074928;28;19912;-36
2022/08/03 12:34:22;;;;;;;;;;;;;;;32.79;38.72;101436.34;5075233;28;19931;-36
2022/08/03 12:36:51;;;;;;;;;;;;;;;32.93;39.08;101435.06;5075350;28;19913;-36
2022/08/03 12:39:16;;;;;;;;;;;;;;;32.96;38.44;101428.72;5074964;28;19955;-36
2022/08/03 12:41:42;;;;;;;;;;;;;;;33.02;38.91;101433.66;5075221;28;19912;-36
2022/08/03 12:44:08;;;;;;;;;;;;;;;33.03;39.01;101434.47;5075576;28;19919;-36